sensor_id;sensor_type;location;lat;lon;timestamp;pressure;altitude;pressure_sealevel;temperature;humidity
31595;BME280;18200;48.726;8.892;2023-01-30T00:01:15;97364.72;;;8.64;38.40
31595;BME280;18200;48.726;8.892;2023-01-30T00:05:16;97351.31;;;7.93;38.88
31595;BME280;18200;48.726;8.892;2023-01-30T00:09:16;97340.56;;;8.31;38.87
31595;BME280;18200;48.726;8.892;2023-01-30T00:13:16;97322.34;;;8.45;38.48
31595;BME280;18200;48.726;8.892;2023-01-30T00:17:17;97305.31;;;8.29;38.46
31595;BME280;18200;48.726;8.892;2023-01-30T00:21:18;97305.56;;;8.15;37.87
31595;BME280;18200;48.726;8.892;2023-01-30T00:25:18;97297.19;;;8.17;38.75
31595;BME280;18200;48.726;8.892;2023-01-30T00:29:19;97294.72;;;8.53;38.92
31595;BME280;18200;48.726;8.892;2023-01-30T00:33:20;97302.88;;;8.77;38.39
31595;BME280;18200;48.726;8.892;2023-01-30T00:37:21;97292.78;;;8.74;37.78
31595;BME280;18200;48.726;8.892;2023-01-30T00:41:23;97282.28;;;8.36;37.99
31595;BME280;18200;48.726;8.892;2023-01-30T00:45:23;97278.25;;;8.63;38.41
31595;BME280;18200;48.726;8.892;2023-01-30T00:49:42;97282.28;;;8.69;38.20
31595;BME280;18200;48.726;8.892;2023-01-30T00:53:42;97306.69;;;8.06;39.65
31595;BME280;18200;48.726;8.892;2023-01-30T00:57:43;97318.38;;;8.51;38.87
31595;BME280;18200;48.726;8.892;2023-01-30T01:01:44;97329.75;;;7.60;39.90
31595;BME280;18200;48.726;8.892;2023-01-30T01:05:44;97357.91;;;7.12;40.18
31595;BME280;18200;48.726;8.892;2023-01-30T01:09:47;97377.09;;;7.68;40.07
31595;BME280;18200;48.726;8.892;2023-01-30T01:13:47;97385.75;;;6.93;41.37
31595;BME280;18200;48.726;8.892;2023-01-30T01:17:48;97382.75;;;7.58;40.50
31595;BME280;18200;48.726;8.892;2023-01-30T01:21:49;97364.59;;;8.39;39.23
31595;BME280;18200;48.726;8.892;2023-01-30T01:25:50;97390.38;;;7.39;40.53
31595;BME280;18200;48.726;8.892;2023-01-30T01:29:50;97376.47;;;8.30;39.96
31595;BME280;18200;48.726;8.892;2023-01-30T01:33:51;97369.25;;;8.51;39.06
31595;BME280;18200;48.726;8.892;2023-01-30T01:37:52;97375.81;;;7.28;40.73
31595;BME280;18200;48.726;8.892;2023-01-30T01:41:53;97352.91;;;8.15;39.38
31595;BME280;18200;48.726;8.892;2023-01-30T01:46:24;97360.44;;;7.08;41.36
31595;BME280;18200;48.726;8.892;2023-01-30T01:50:53;97352.22;;;7.97;39.41
31595;BME280;18200;48.726;8.892;2023-01-30T01:55:02;97359.38;;;8.43;39.11
31595;BME280;18200;48.726;8.892;2023-01-30T01:59:15;97337.78;;;8.19;38.30
31595;BME280;18200;48.726;8.892;2023-01-30T02:03:23;97352.78;;;8.11;39.22
31595;BME280;18200;48.726;8.892;2023-01-30T02:07:25;97364.66;;;8.02;40.00
31595;BME280;18200;48.726;8.892;2023-01-30T02:11:40;97369.25;;;8.22;38.19
31595;BME280;18200;48.726;8.892;2023-01-30T02:15:42;97362.44;;;8.33;39.29
31595;BME280;18200;48.726;8.892;2023-01-30T02:24:29;97343.13;;;8.19;38.71
31595;BME280;18200;48.726;8.892;2023-01-30T02:33:40;97338.69;;;8.02;39.29
31595;BME280;18200;48.726;8.892;2023-01-30T02:38:23;97373.59;;;7.76;39.28
31595;BME280;18200;48.726;8.892;2023-01-30T02:42:43;97350.06;;;8.20;39.43
31595;BME280;18200;48.726;8.892;2023-01-30T02:51:28;97337.69;;;7.77;39.34
31595;BME280;18200;48.726;8.892;2023-01-30T02:55:29;97340.72;;;7.38;40.07
31595;BME280;18200;48.726;8.892;2023-01-30T02:59:34;97338.72;;;7.94;39.68
31595;BME280;18200;48.726;8.892;2023-01-30T03:08:23;97322.03;;;7.67;39.42
31595;BME280;18200;48.726;8.892;2023-01-30T03:17:08;97286.09;;;6.38;42.81
31595;BME280;18200;48.726;8.892;2023-01-30T03:21:11;97254.53;;;6.32;42.89
31595;BME280;18200;48.726;8.892;2023-01-30T03:25:16;97221.75;;;6.86;42.81
31595;BME280;18200;48.726;8.892;2023-01-30T03:29:17;97206.53;;;7.53;42.00
31595;BME280;18200;48.726;8.892;2023-01-30T03:33:18;97180.91;;;7.52;42.24
31595;BME280;18200;48.726;8.892;2023-01-30T03:37:21;97189.22;;;8.01;41.17
31595;BME280;18200;48.726;8.892;2023-01-30T03:41:22;97200.13;;;8.61;40.55
31595;BME280;18200;48.726;8.892;2023-01-30T03:45:22;97219.84;;;9.01;39.35
31595;BME280;18200;48.726;8.892;2023-01-30T03:49:22;97241.38;;;8.81;39.38
31595;BME280;18200;48.726;8.892;2023-01-30T03:53:23;97222.91;;;7.72;42.22
31595;BME280;18200;48.726;8.892;2023-01-30T03:57:23;97225.63;;;6.51;45.33
31595;BME280;18200;48.726;8.892;2023-01-30T04:01:24;97209.75;;;7.38;43.87
31595;BME280;18200;48.726;8.892;2023-01-30T04:05:25;97214.13;;;8.67;40.88
31595;BME280;18200;48.726;8.892;2023-01-30T04:09:31;97212.94;;;9.24;40.23
31595;BME280;18200;48.726;8.892;2023-01-30T04:13:31;97202.34;;;9.04;40.08
31595;BME280;18200;48.726;8.892;2023-01-30T04:17:32;97205.31;;;9.75;39.42
31595;BME280;18200;48.726;8.892;2023-01-30T04:21:58;97217.31;;;9.41;39.68
31595;BME280;18200;48.726;8.892;2023-01-30T04:25:59;97232.69;;;10.32;37.87
31595;BME280;18200;48.726;8.892;2023-01-30T04:30:01;97216.97;;;9.55;39.61
31595;BME280;18200;48.726;8.892;2023-01-30T04:34:01;97222.78;;;9.69;39.14
31595;BME280;18200;48.726;8.892;2023-01-30T04:38:02;97213.91;;;10.32;37.97
31595;BME280;18200;48.726;8.892;2023-01-30T04:42:02;97213.25;;;10.51;37.27
31595;BME280;18200;48.726;8.892;2023-01-30T04:46:10;97217.66;;;10.43;37.31
31595;BME280;18200;48.726;8.892;2023-01-30T04:50:10;97213.75;;;10.13;38.13
31595;BME280;18200;48.726;8.892;2023-01-30T04:54:11;97221.41;;;9.75;38.53
31595;BME280;18200;48.726;8.892;2023-01-30T04:58:11;97204.91;;;9.12;40.03
31595;BME280;18200;48.726;8.892;2023-01-30T05:02:12;97199.75;;;9.44;39.68
31595;BME280;18200;48.726;8.892;2023-01-30T05:06:12;97205.94;;;9.96;39.01
31595;BME280;18200;48.726;8.892;2023-01-30T05:10:13;97196.56;;;9.90;38.63
31595;BME280;18200;48.726;8.892;2023-01-30T05:14:13;97186.28;;;9.80;38.73
31595;BME280;18200;48.726;8.892;2023-01-30T05:18:14;97178.50;;;10.42;37.98
31595;BME280;18200;48.726;8.892;2023-01-30T05:22:14;97170.44;;;10.42;37.54
31595;BME280;18200;48.726;8.892;2023-01-30T05:26:14;97173.91;;;10.03;38.32
31595;BME280;18200;48.726;8.892;2023-01-30T05:30:15;97162.44;;;10.30;38.08
31595;BME280;18200;48.726;8.892;2023-01-30T05:34:15;97152.56;;;9.79;38.13
31595;BME280;18200;48.726;8.892;2023-01-30T05:38:16;97157.47;;;10.17;37.60
31595;BME280;18200;48.726;8.892;2023-01-30T05:42:17;97164.22;;;9.59;39.23
31595;BME280;18200;48.726;8.892;2023-01-30T05:46:18;97160.06;;;10.01;38.47
31595;BME280;18200;48.726;8.892;2023-01-30T05:50:18;97146.31;;;9.75;39.25
31595;BME280;18200;48.726;8.892;2023-01-30T05:54:19;97156.16;;;10.10;38.36
31595;BME280;18200;48.726;8.892;2023-01-30T05:58:19;97148.34;;;9.93;38.54
31595;BME280;18200;48.726;8.892;2023-01-30T06:02:20;97147.84;;;9.76;38.93
31595;BME280;18200;48.726;8.892;2023-01-30T06:06:21;97138.13;;;9.83;39.18
31595;BME280;18200;48.726;8.892;2023-01-30T06:10:22;97148.13;;;9.59;39.63
31595;BME280;18200;48.726;8.892;2023-01-30T06:14:22;97156.69;;;10.16;38.22
31595;BME280;18200;48.726;8.892;2023-01-30T06:18:23;97146.13;;;9.95;38.75
31595;BME280;18200;48.726;8.892;2023-01-30T06:22:24;97126.69;;;9.86;38.92
31595;BME280;18200;48.726;8.892;2023-01-30T06:26:24;97146.38;;;9.38;39.41
31595;BME280;18200;48.726;8.892;2023-01-30T06:30:24;97132.09;;;10.14;39.17
31595;BME280;18200;48.726;8.892;2023-01-30T06:34:25;97135.00;;;10.09;39.21
31595;BME280;18200;48.726;8.892;2023-01-30T06:38:25;97126.94;;;8.45;42.95
31595;BME280;18200;48.726;8.892;2023-01-30T06:42:26;97113.88;;;10.51;38.58
31595;BME280;18200;48.726;8.892;2023-01-30T06:46:26;97120.19;;;10.43;38.42
31595;BME280;18200;48.726;8.892;2023-01-30T06:50:27;97134.00;;;10.01;39.50
31595;BME280;18200;48.726;8.892;2023-01-30T06:54:28;97125.94;;;9.86;39.92
31595;BME280;18200;48.726;8.892;2023-01-30T06:58:28;97125.66;;;9.91;39.24
31595;BME280;18200;48.726;8.892;2023-01-30T07:02:29;97103.38;;;10.30;39.20
31595;BME280;18200;48.726;8.892;2023-01-30T07:06:33;97109.34;;;10.39;39.04
31595;BME280;18200;48.726;8.892;2023-01-30T07:10:34;97119.69;;;10.68;38.20
31595;BME280;18200;48.726;8.892;2023-01-30T07:14:35;97129.63;;;10.99;37.62
31595;BME280;18200;48.726;8.892;2023-01-30T07:18:35;97153.84;;;10.83;37.78
31595;BME280;18200;48.726;8.892;2023-01-30T07:22:38;97163.66;;;11.57;37.01
31595;BME280;18200;48.726;8.892;2023-01-30T07:26:38;97162.69;;;11.50;36.85
31595;BME280;18200;48.726;8.892;2023-01-30T07:30:38;97173.00;;;11.79;36.63
31595;BME280;18200;48.726;8.892;2023-01-30T07:34:39;97166.16;;;11.66;36.63
31595;BME280;18200;48.726;8.892;2023-01-30T07:38:40;97164.22;;;11.32;37.97
31595;BME280;18200;48.726;8.892;2023-01-30T07:42:41;97151.50;;;11.48;38.15
31595;BME280;18200;48.726;8.892;2023-01-30T07:46:42;97155.06;;;10.70;39.24
31595;BME280;18200;48.726;8.892;2023-01-30T07:50:42;97162.00;;;11.53;37.91
31595;BME280;18200;48.726;8.892;2023-01-30T07:54:42;97175.03;;;11.51;38.21
31595;BME280;18200;48.726;8.892;2023-01-30T07:58:44;97167.78;;;12.24;37.68
31595;BME280;18200;48.726;8.892;2023-01-30T08:02:45;97161.09;;;11.99;37.93
31595;BME280;18200;48.726;8.892;2023-01-30T08:06:46;97141.69;;;12.28;37.46
31595;BME280;18200;48.726;8.892;2023-01-30T08:10:49;97165.78;;;12.02;37.63
31595;BME280;18200;48.726;8.892;2023-01-30T08:14:50;97171.75;;;11.92;37.91
31595;BME280;18200;48.726;8.892;2023-01-30T08:18:50;97198.44;;;11.66;38.44
31595;BME280;18200;48.726;8.892;2023-01-30T08:22:51;97205.34;;;12.36;37.21
31595;BME280;18200;48.726;8.892;2023-01-30T08:26:51;97179.66;;;12.42;36.66
31595;BME280;18200;48.726;8.892;2023-01-30T08:30:52;97165.38;;;12.19;37.12
31595;BME280;18200;48.726;8.892;2023-01-30T08:34:53;97164.44;;;12.12;37.61
31595;BME280;18200;48.726;8.892;2023-01-30T08:38:53;97149.56;;;11.64;38.54
31595;BME280;18200;48.726;8.892;2023-01-30T08:42:54;97147.06;;;12.28;37.77
31595;BME280;18200;48.726;8.892;2023-01-30T08:46:54;97145.25;;;12.13;38.70
31595;BME280;18200;48.726;8.892;2023-01-30T08:50:55;97131.91;;;12.01;38.87
31595;BME280;18200;48.726;8.892;2023-01-30T08:54:56;97125.09;;;12.26;39.30
31595;BME280;18200;48.726;8.892;2023-01-30T08:58:56;97125.63;;;12.35;39.03
31595;BME280;18200;48.726;8.892;2023-01-30T09:02:57;97128.09;;;11.14;41.71
31595;BME280;18200;48.726;8.892;2023-01-30T09:06:57;97102.50;;;11.93;40.04
31595;BME280;18200;48.726;8.892;2023-01-30T09:10:59;97099.88;;;12.15;39.70
31595;BME280;18200;48.726;8.892;2023-01-30T09:14:59;97101.56;;;11.66;40.10
31595;BME280;18200;48.726;8.892;2023-01-30T09:18:59;97082.16;;;12.14;39.64
31595;BME280;18200;48.726;8.892;2023-01-30T09:23:00;97080.25;;;12.83;38.62
31595;BME280;18200;48.726;8.892;2023-01-30T09:27:01;97093.28;;;13.26;37.65
31595;BME280;18200;48.726;8.892;2023-01-30T09:31:01;97088.06;;;12.42;39.11
31595;BME280;18200;48.726;8.892;2023-01-30T09:35:03;97089.22;;;13.13;38.52
31595;BME280;18200;48.726;8.892;2023-01-30T09:39:03;97098.34;;;13.31;37.86
31595;BME280;18200;48.726;8.892;2023-01-30T09:43:23;97103.97;;;12.74;40.06
31595;BME280;18200;48.726;8.892;2023-01-30T09:47:46;97104.78;;;13.23;38.69
31595;BME280;18200;48.726;8.892;2023-01-30T09:56:08;97077.88;;;13.86;37.37
31595;BME280;18200;48.726;8.892;2023-01-30T10:00:14;97081.13;;;14.02;37.75
31595;BME280;18200;48.726;8.892;2023-01-30T10:17:45;97031.25;;;15.34;36.00
31595;BME280;18200;48.726;8.892;2023-01-30T10:26:24;97024.41;;;15.51;36.61
31595;BME280;18200;48.726;8.892;2023-01-30T10:30:25;97025.38;;;16.08;35.31
31595;BME280;18200;48.726;8.892;2023-01-30T10:34:37;97026.97;;;16.33;35.75
31595;BME280;18200;48.726;8.892;2023-01-30T10:38:48;97021.81;;;15.76;36.06
31595;BME280;18200;48.726;8.892;2023-01-30T10:43:00;97029.16;;;15.79;36.42
31595;BME280;18200;48.726;8.892;2023-01-30T10:47:31;97019.50;;;14.15;40.55
31595;BME280;18200;48.726;8.892;2023-01-30T10:51:50;97013.72;;;15.90;36.85
31595;BME280;18200;48.726;8.892;2023-01-30T10:56:00;97003.72;;;16.15;36.64
31595;BME280;18200;48.726;8.892;2023-01-30T11:00:10;97016.09;;;16.19;36.96
31595;BME280;18200;48.726;8.892;2023-01-30T11:04:25;97011.75;;;15.87;37.83
31595;BME280;18200;48.726;8.892;2023-01-30T11:08:31;97005.44;;;15.47;38.14
31595;BME280;18200;48.726;8.892;2023-01-30T11:12:32;97011.22;;;14.34;40.17
31595;BME280;18200;48.726;8.892;2023-01-30T11:16:49;97002.97;;;14.63;39.77
31595;BME280;18200;48.726;8.892;2023-01-30T11:21:03;97009.34;;;15.53;38.09
31595;BME280;18200;48.726;8.892;2023-01-30T11:25:12;97006.19;;;15.44;37.40
31595;BME280;18200;48.726;8.892;2023-01-30T11:29:15;97009.06;;;15.87;37.61
31595;BME280;18200;48.726;8.892;2023-01-30T11:33:16;96995.91;;;15.82;37.57
31595;BME280;18200;48.726;8.892;2023-01-30T11:37:34;97000.53;;;15.85;37.36
31595;BME280;18200;48.726;8.892;2023-01-30T11:41:34;96994.38;;;15.88;38.21
31595;BME280;18200;48.726;8.892;2023-01-30T11:45:36;97001.06;;;14.67;39.51
31595;BME280;18200;48.726;8.892;2023-01-30T11:49:42;96992.03;;;15.76;38.35
31595;BME280;18200;48.726;8.892;2023-01-30T11:54:06;97010.13;;;14.89;39.38
31595;BME280;18200;48.726;8.892;2023-01-30T11:58:08;97007.78;;;14.84;39.87
31595;BME280;18200;48.726;8.892;2023-01-30T12:02:17;96995.47;;;14.97;39.14
31595;BME280;18200;48.726;8.892;2023-01-30T12:06:34;97002.63;;;15.33;38.99
31595;BME280;18200;48.726;8.892;2023-01-30T12:10:40;96998.56;;;14.99;39.90
31595;BME280;18200;48.726;8.892;2023-01-30T12:14:44;96995.44;;;14.90;39.50
31595;BME280;18200;48.726;8.892;2023-01-30T12:19:02;96989.00;;;16.05;38.31
31595;BME280;18200;48.726;8.892;2023-01-30T12:23:13;96984.41;;;14.58;40.26
31595;BME280;18200;48.726;8.892;2023-01-30T12:27:20;96976.56;;;15.94;38.40
31595;BME280;18200;48.726;8.892;2023-01-30T12:31:38;96975.84;;;16.46;37.83
31595;BME280;18200;48.726;8.892;2023-01-30T12:36:07;96982.44;;;16.31;38.84
31595;BME280;18200;48.726;8.892;2023-01-30T12:40:37;96980.44;;;15.93;38.31
31595;BME280;18200;48.726;8.892;2023-01-30T12:45:17;96991.50;;;13.93;41.46
31595;BME280;18200;48.726;8.892;2023-01-30T12:49:34;96992.03;;;15.93;38.44
31595;BME280;18200;48.726;8.892;2023-01-30T12:53:47;97002.66;;;15.40;39.91
31595;BME280;18200;48.726;8.892;2023-01-30T12:57:59;97012.63;;;16.12;38.45
31595;BME280;18200;48.726;8.892;2023-01-30T13:02:19;97020.78;;;16.37;37.95
31595;BME280;18200;48.726;8.892;2023-01-30T13:10:47;97040.63;;;14.39;42.79
31595;BME280;18200;48.726;8.892;2023-01-30T13:15:00;97038.88;;;15.15;39.98
31595;BME280;18200;48.726;8.892;2023-01-30T13:19:19;97045.00;;;15.05;41.34
31595;BME280;18200;48.726;8.892;2023-01-30T13:28:14;97031.94;;;15.21;41.11
31595;BME280;18200;48.726;8.892;2023-01-30T13:32:29;97038.00;;;15.62;39.85
31595;BME280;18200;48.726;8.892;2023-01-30T13:36:41;97052.97;;;15.41;40.55
31595;BME280;18200;48.726;8.892;2023-01-30T13:40:47;97056.63;;;15.12;40.96
31595;BME280;18200;48.726;8.892;2023-01-30T13:44:48;97064.28;;;15.00;41.77
31595;BME280;18200;48.726;8.892;2023-01-30T13:49:12;97071.91;;;16.38;38.68
31595;BME280;18200;48.726;8.892;2023-01-30T14:06:10;97093.34;;;15.64;40.59
31595;BME280;18200;48.726;8.892;2023-01-30T14:10:18;97093.81;;;14.31;42.19
31595;BME280;18200;48.726;8.892;2023-01-30T14:14:24;97102.31;;;15.79;40.26
31595;BME280;18200;48.726;8.892;2023-01-30T14:18:33;97111.13;;;15.62;40.60
31595;BME280;18200;48.726;8.892;2023-01-30T14:22:50;97124.66;;;14.27;43.79
31595;BME280;18200;48.726;8.892;2023-01-30T14:30:59;97127.72;;;15.06;41.44
31595;BME280;18200;48.726;8.892;2023-01-30T14:39:39;97135.84;;;12.45;45.12
31595;BME280;18200;48.726;8.892;2023-01-30T14:47:41;97180.94;;;12.29;46.02
31595;BME280;18200;48.726;8.892;2023-01-30T14:51:43;97177.63;;;12.17;45.65
31595;BME280;18200;48.726;8.892;2023-01-30T14:55:45;97179.81;;;13.92;42.68
31595;BME280;18200;48.726;8.892;2023-01-30T15:00:16;97183.22;;;13.11;43.71
31595;BME280;18200;48.726;8.892;2023-01-30T15:04:17;97202.13;;;11.27;48.76
31595;BME280;18200;48.726;8.892;2023-01-30T15:08:22;97177.81;;;11.89;46.99
31595;BME280;18200;48.726;8.892;2023-01-30T15:16:58;97188.19;;;11.06;48.85
31595;BME280;18200;48.726;8.892;2023-01-30T15:21:14;97188.03;;;12.18;46.53
31595;BME280;18200;48.726;8.892;2023-01-30T15:25:31;97193.69;;;11.75;46.54
31595;BME280;18200;48.726;8.892;2023-01-30T15:29:59;97189.09;;;11.60;47.31
31595;BME280;18200;48.726;8.892;2023-01-30T15:34:01;97199.66;;;12.41;45.88
31595;BME280;18200;48.726;8.892;2023-01-30T15:38:02;97217.72;;;12.60;44.85
31595;BME280;18200;48.726;8.892;2023-01-30T15:42:05;97227.88;;;12.09;44.83
31595;BME280;18200;48.726;8.892;2023-01-30T15:46:24;97214.09;;;13.62;42.99
31595;BME280;18200;48.726;8.892;2023-01-30T15:50:28;97214.88;;;11.96;46.10
31595;BME280;18200;48.726;8.892;2023-01-30T15:54:29;97222.00;;;11.69;46.92
31595;BME280;18200;48.726;8.892;2023-01-30T15:58:29;97229.34;;;12.07;45.45
31595;BME280;18200;48.726;8.892;2023-01-30T16:02:34;97221.81;;;11.46;47.08
31595;BME280;18200;48.726;8.892;2023-01-30T16:06:36;97228.94;;;12.43;45.61
31595;BME280;18200;48.726;8.892;2023-01-30T16:10:43;97222.72;;;12.81;44.80
31595;BME280;18200;48.726;8.892;2023-01-30T16:14:45;97219.84;;;12.93;44.22
31595;BME280;18200;48.726;8.892;2023-01-30T16:18:48;97238.19;;;12.84;44.38
31595;BME280;18200;48.726;8.892;2023-01-30T16:22:51;97243.63;;;13.06;44.21
31595;BME280;18200;48.726;8.892;2023-01-30T16:26:55;97264.19;;;13.14;43.25
31595;BME280;18200;48.726;8.892;2023-01-30T16:31:01;97265.59;;;13.05;44.50
31595;BME280;18200;48.726;8.892;2023-01-30T16:39:35;97270.72;;;13.59;42.76
31595;BME280;18200;48.726;8.892;2023-01-30T16:43:36;97269.41;;;14.28;41.27
31595;BME280;18200;48.726;8.892;2023-01-30T16:47:43;97289.66;;;12.37;44.42
31595;BME280;18200;48.726;8.892;2023-01-30T16:51:44;97273.88;;;12.96;43.66
31595;BME280;18200;48.726;8.892;2023-01-30T16:55:55;97292.09;;;13.03;43.79
31595;BME280;18200;48.726;8.892;2023-01-30T16:59:57;97291.22;;;12.22;45.20
31595;BME280;18200;48.726;8.892;2023-01-30T17:04:02;97287.22;;;12.70;44.52
31595;BME280;18200;48.726;8.892;2023-01-30T17:08:04;97298.31;;;12.11;46.20
31595;BME280;18200;48.726;8.892;2023-01-30T17:16:33;97288.28;;;12.46;45.57
31595;BME280;18200;48.726;8.892;2023-01-30T17:20:38;97306.91;;;12.17;46.18
31595;BME280;18200;48.726;8.892;2023-01-30T17:24:40;97319.47;;;12.28;45.02
31595;BME280;18200;48.726;8.892;2023-01-30T17:28:41;97313.56;;;12.77;45.21
31595;BME280;18200;48.726;8.892;2023-01-30T17:32:42;97320.81;;;13.79;42.06
31595;BME280;18200;48.726;8.892;2023-01-30T17:36:44;97331.00;;;13.89;42.14
31595;BME280;18200;48.726;8.892;2023-01-30T17:40:45;97344.66;;;13.09;43.15
31595;BME280;18200;48.726;8.892;2023-01-30T17:44:46;97344.25;;;12.72;44.88
31595;BME280;18200;48.726;8.892;2023-01-30T17:48:46;97355.38;;;13.47;43.00
31595;BME280;18200;48.726;8.892;2023-01-30T17:52:47;97363.97;;;13.75;42.25
31595;BME280;18200;48.726;8.892;2023-01-30T17:56:51;97363.72;;;13.84;42.35
31595;BME280;18200;48.726;8.892;2023-01-30T18:00:53;97364.31;;;13.96;42.11
31595;BME280;18200;48.726;8.892;2023-01-30T18:04:53;97372.09;;;14.01;42.38
31595;BME280;18200;48.726;8.892;2023-01-30T18:08:54;97370.78;;;14.67;40.47
31595;BME280;18200;48.726;8.892;2023-01-30T18:12:54;97375.34;;;14.11;41.38
31595;BME280;18200;48.726;8.892;2023-01-30T18:16:55;97378.47;;;13.67;42.01
31595;BME280;18200;48.726;8.892;2023-01-30T18:20:59;97380.38;;;13.44;41.96
31595;BME280;18200;48.726;8.892;2023-01-30T18:24:59;97374.34;;;12.93;43.49
31595;BME280;18200;48.726;8.892;2023-01-30T18:28:59;97385.44;;;13.68;42.19
31595;BME280;18200;48.726;8.892;2023-01-30T18:33:00;97388.13;;;13.68;42.15
31595;BME280;18200;48.726;8.892;2023-01-30T18:37:00;97393.38;;;13.00;43.89
31595;BME280;18200;48.726;8.892;2023-01-30T18:45:07;97413.09;;;13.62;41.86
31595;BME280;18200;48.726;8.892;2023-01-30T18:49:08;97411.16;;;12.67;44.72
31595;BME280;18200;48.726;8.892;2023-01-30T18:53:08;97418.31;;;13.13;43.28
31595;BME280;18200;48.726;8.892;2023-01-30T18:57:08;97423.00;;;13.77;42.08
31595;BME280;18200;48.726;8.892;2023-01-30T19:01:11;97431.88;;;14.23;40.65
31595;BME280;18200;48.726;8.892;2023-01-30T19:05:13;97439.47;;;14.14;41.36
31595;BME280;18200;48.726;8.892;2023-01-30T19:09:14;97446.91;;;12.64;44.30
31595;BME280;18200;48.726;8.892;2023-01-30T19:13:15;97439.50;;;14.40;40.46
31595;BME280;18200;48.726;8.892;2023-01-30T19:17:36;97441.59;;;13.21;42.75
31595;BME280;18200;48.726;8.892;2023-01-30T19:21:37;97448.09;;;13.01;43.74
31595;BME280;18200;48.726;8.892;2023-01-30T19:25:37;97465.94;;;12.71;43.60
31595;BME280;18200;48.726;8.892;2023-01-30T19:29:39;97462.69;;;13.54;42.43
31595;BME280;18200;48.726;8.892;2023-01-30T19:33:42;97464.59;;;13.53;42.65
31595;BME280;18200;48.726;8.892;2023-01-30T19:37:43;97473.69;;;13.07;44.00
31595;BME280;18200;48.726;8.892;2023-01-30T19:41:43;97477.69;;;14.35;41.16
31595;BME280;18200;48.726;8.892;2023-01-30T19:45:44;97485.94;;;12.70;44.04
31595;BME280;18200;48.726;8.892;2023-01-30T19:49:44;97494.09;;;13.23;43.61
31595;BME280;18200;48.726;8.892;2023-01-30T19:53:49;97482.75;;;12.99;44.04
31595;BME280;18200;48.726;8.892;2023-01-30T19:57:51;97486.91;;;13.50;43.09
31595;BME280;18200;48.726;8.892;2023-01-30T20:01:51;97504.09;;;13.23;44.00
31595;BME280;18200;48.726;8.892;2023-01-30T20:05:51;97495.16;;;13.57;43.38
31595;BME280;18200;48.726;8.892;2023-01-30T20:09:52;97498.56;;;13.16;44.63
31595;BME280;18200;48.726;8.892;2023-01-30T20:13:53;97505.72;;;12.93;45.17
31595;BME280;18200;48.726;8.892;2023-01-30T20:17:53;97511.94;;;12.15;47.14
31595;BME280;18200;48.726;8.892;2023-01-30T20:21:54;97503.97;;;13.35;43.98
31595;BME280;18200;48.726;8.892;2023-01-30T20:25:55;97525.41;;;12.15;46.44
31595;BME280;18200;48.726;8.892;2023-01-30T20:30:02;97516.81;;;14.67;40.83
31595;BME280;18200;48.726;8.892;2023-01-30T20:34:05;97526.00;;;14.40;41.28
31595;BME280;18200;48.726;8.892;2023-01-30T20:38:05;97523.38;;;14.92;40.41
31595;BME280;18200;48.726;8.892;2023-01-30T20:42:06;97525.59;;;13.96;42.39
31595;BME280;18200;48.726;8.892;2023-01-30T20:46:09;97546.63;;;12.64;45.44
31595;BME280;18200;48.726;8.892;2023-01-30T20:50:10;97535.50;;;13.50;43.23
31595;BME280;18200;48.726;8.892;2023-01-30T20:54:15;97550.75;;;13.43;42.83
31595;BME280;18200;48.726;8.892;2023-01-30T20:58:17;97549.34;;;13.14;43.52
31595;BME280;18200;48.726;8.892;2023-01-30T21:02:17;97546.00;;;13.74;42.04
31595;BME280;18200;48.726;8.892;2023-01-30T21:06:20;97562.81;;;12.64;44.56
31595;BME280;18200;48.726;8.892;2023-01-30T21:10:20;97552.56;;;13.35;43.16
31595;BME280;18200;48.726;8.892;2023-01-30T21:14:21;97567.22;;;12.72;43.68
31595;BME280;18200;48.726;8.892;2023-01-30T21:18:22;97574.19;;;12.73;44.97
31595;BME280;18200;48.726;8.892;2023-01-30T21:22:23;97572.28;;;14.16;41.41
31595;BME280;18200;48.726;8.892;2023-01-30T21:26:28;97573.94;;;13.09;43.71
31595;BME280;18200;48.726;8.892;2023-01-30T21:30:29;97571.31;;;13.12;43.16
31595;BME280;18200;48.726;8.892;2023-01-30T21:34:29;97585.72;;;14.31;40.93
31595;BME280;18200;48.726;8.892;2023-01-30T21:38:57;97587.25;;;13.90;42.13
31595;BME280;18200;48.726;8.892;2023-01-30T21:43:17;97602.03;;;13.77;42.09
31595;BME280;18200;48.726;8.892;2023-01-30T21:47:18;97604.28;;;14.33;41.25
31595;BME280;18200;48.726;8.892;2023-01-30T21:51:19;97615.78;;;13.53;42.20
31595;BME280;18200;48.726;8.892;2023-01-30T21:55:22;97622.22;;;14.02;41.85
31595;BME280;18200;48.726;8.892;2023-01-30T21:59:23;97639.78;;;13.08;44.09
31595;BME280;18200;48.726;8.892;2023-01-30T22:03:26;97643.53;;;14.08;42.19
31595;BME280;18200;48.726;8.892;2023-01-30T22:07:27;97639.28;;;14.07;42.19
31595;BME280;18200;48.726;8.892;2023-01-30T22:11:35;97632.13;;;13.60;42.53
31595;BME280;18200;48.726;8.892;2023-01-30T22:15:37;97649.09;;;13.26;43.27
31595;BME280;18200;48.726;8.892;2023-01-30T22:19:37;97634.72;;;14.11;41.12
31595;BME280;18200;48.726;8.892;2023-01-30T22:23:42;97624.75;;;14.15;41.77
31595;BME280;18200;48.726;8.892;2023-01-30T22:27:43;97638.19;;;13.22;43.23
31595;BME280;18200;48.726;8.892;2023-01-30T22:31:45;97628.75;;;12.82;43.48
31595;BME280;18200;48.726;8.892;2023-01-30T22:35:48;97641.16;;;11.72;46.36
31595;BME280;18200;48.726;8.892;2023-01-30T22:39:49;97644.16;;;12.38;44.21
31595;BME280;18200;48.726;8.892;2023-01-30T22:43:55;97639.34;;;13.06;44.01
31595;BME280;18200;48.726;8.892;2023-01-30T22:47:55;97638.38;;;12.83;43.37
31595;BME280;18200;48.726;8.892;2023-01-30T22:51:56;97647.47;;;12.47;43.20
31595;BME280;18200;48.726;8.892;2023-01-30T22:55:59;97633.56;;;14.50;40.17
31595;BME280;18200;48.726;8.892;2023-01-30T22:59:59;97629.75;;;14.32;40.94
31595;BME280;18200;48.726;8.892;2023-01-30T23:04:15;97642.13;;;14.33;40.17
31595;BME280;18200;48.726;8.892;2023-01-30T23:08:16;97631.16;;;14.67;39.83
31595;BME280;18200;48.726;8.892;2023-01-30T23:12:16;97636.50;;;14.22;39.21
31595;BME280;18200;48.726;8.892;2023-01-30T23:16:37;97643.50;;;14.65;39.67